sensor_id;sensor_type;location;lat;lon;timestamp;P1;durP1;ratioP1;P2;durP2;ratioP2
70780;SDS011;59514;48.810;2.134;2022-11-15T00:01:36;6.30;;;3.13;;
70780;SDS011;59514;48.810;2.134;2022-11-15T00:04:02;6.47;;;3.20;;
70780;SDS011;59514;48.810;2.134;2022-11-15T00:06:28;6.82;;;2.70;;
70780;SDS011;59514;48.810;2.134;2022-11-15T00:08:54;8.55;;;2.85;;
70780;SDS011;59514;48.810;2.134;2022-11-15T00:11:19;5.13;;;2.70;;
70780;SDS011;59514;48.810;2.134;2022-11-15T00:13:44;4.72;;;2.50;;
70780;SDS011;59514;48.810;2.134;2022-11-15T00:16:10;5.90;;;2.65;;
70780;SDS011;59514;48.810;2.134;2022-11-15T00:18:35;5.22;;;2.65;;
70780;SDS011;59514;48.810;2.134;2022-11-15T00:21:05;5.50;;;2.70;;
70780;SDS011;59514;48.810;2.134;2022-11-15T00:23:34;6.05;;;2.55;;
70780;SDS011;59514;48.810;2.134;2022-11-15T00:25:59;7.65;;;2.90;;
70780;SDS011;59514;48.810;2.134;2022-11-15T00:28:25;7.10;;;3.10;;
70780;SDS011;59514;48.810;2.134;2022-11-15T00:30:51;8.25;;;2.30;;
70780;SDS011;59514;48.810;2.134;2022-11-15T00:33:16;3.72;;;2.42;;
70780;SDS011;59514;48.810;2.134;2022-11-15T00:35:41;8.07;;;2.80;;
70780;SDS011;59514;48.810;2.134;2022-11-15T00:38:07;7.35;;;2.47;;
70780;SDS011;59514;48.810;2.134;2022-11-15T00:40:32;5.43;;;2.53;;
70780;SDS011;59514;48.810;2.134;2022-11-15T00:42:58;5.57;;;2.97;;
70780;SDS011;59514;48.810;2.134;2022-11-15T00:45:23;4.18;;;2.08;;
70780;SDS011;59514;48.810;2.134;2022-11-15T00:47:49;4.45;;;2.92;;
70780;SDS011;59514;48.810;2.134;2022-11-15T00:50:15;6.45;;;2.80;;
70780;SDS011;59514;48.810;2.134;2022-11-15T00:52:40;9.05;;;2.83;;
70780;SDS011;59514;48.810;2.134;2022-11-15T00:55:06;5.22;;;2.20;;
70780;SDS011;59514;48.810;2.134;2022-11-15T00:57:31;7.93;;;2.40;;
70780;SDS011;59514;48.810;2.134;2022-11-15T00:59:57;6.03;;;2.25;;
70780;SDS011;59514;48.810;2.134;2022-11-15T01:02:22;5.97;;;1.98;;
70780;SDS011;59514;48.810;2.134;2022-11-15T01:04:47;5.82;;;2.50;;
70780;SDS011;59514;48.810;2.134;2022-11-15T01:07:12;6.57;;;2.30;;
70780;SDS011;59514;48.810;2.134;2022-11-15T01:09:38;3.95;;;2.28;;
70780;SDS011;59514;48.810;2.134;2022-11-15T01:12:03;6.43;;;2.80;;
70780;SDS011;59514;48.810;2.134;2022-11-15T01:14:29;12.32;;;3.03;;
70780;SDS011;59514;48.810;2.134;2022-11-15T01:16:54;5.10;;;1.95;;
70780;SDS011;59514;48.810;2.134;2022-11-15T01:19:20;4.18;;;2.28;;
70780;SDS011;59514;48.810;2.134;2022-11-15T01:21:45;4.15;;;2.20;;
70780;SDS011;59514;48.810;2.134;2022-11-15T01:24:14;5.40;;;2.72;;
70780;SDS011;59514;48.810;2.134;2022-11-15T01:26:40;4.93;;;2.05;;
70780;SDS011;59514;48.810;2.134;2022-11-15T01:29:05;5.80;;;2.20;;
70780;SDS011;59514;48.810;2.134;2022-11-15T01:31:30;5.47;;;1.83;;
70780;SDS011;59514;48.810;2.134;2022-11-15T01:33:56;4.22;;;2.05;;
70780;SDS011;59514;48.810;2.134;2022-11-15T01:36:21;4.43;;;2.03;;
70780;SDS011;59514;48.810;2.134;2022-11-15T01:38:47;3.92;;;2.30;;
70780;SDS011;59514;48.810;2.134;2022-11-15T01:41:22;6.88;;;2.75;;
70780;SDS011;59514;48.810;2.134;2022-11-15T01:43:51;3.90;;;2.05;;
70780;SDS011;59514;48.810;2.134;2022-11-15T01:48:49;7.28;;;2.38;;
70780;SDS011;59514;48.810;2.134;2022-11-15T01:51:16;6.15;;;2.30;;
70780;SDS011;59514;48.810;2.134;2022-11-15T01:53:44;5.78;;;2.20;;
70780;SDS011;59514;48.810;2.134;2022-11-15T01:56:13;7.65;;;2.25;;
70780;SDS011;59514;48.810;2.134;2022-11-15T01:58:43;4.95;;;1.80;;
70780;SDS011;59514;48.810;2.134;2022-11-15T02:01:10;5.28;;;2.03;;
70780;SDS011;59514;48.810;2.134;2022-11-15T02:03:52;6.22;;;1.90;;
70780;SDS011;59514;48.810;2.134;2022-11-15T02:06:21;3.55;;;1.95;;
70780;SDS011;59514;48.810;2.134;2022-11-15T02:08:47;5.50;;;1.80;;
70780;SDS011;59514;48.810;2.134;2022-11-15T02:11:14;5.80;;;2.03;;
70780;SDS011;59514;48.810;2.134;2022-11-15T02:13:39;5.53;;;1.77;;
70780;SDS011;59514;48.810;2.134;2022-11-15T02:18:41;6.55;;;1.67;;
70780;SDS011;59514;48.810;2.134;2022-11-15T02:23:58;6.40;;;2.20;;
70780;SDS011;59514;48.810;2.134;2022-11-15T02:26:50;4.85;;;2.40;;
70780;SDS011;59514;48.810;2.134;2022-11-15T02:34:43;5.60;;;2.07;;
70780;SDS011;59514;48.810;2.134;2022-11-15T02:37:16;7.20;;;1.80;;
70780;SDS011;59514;48.810;2.134;2022-11-15T02:40:11;9.73;;;2.10;;
70780;SDS011;59514;48.810;2.134;2022-11-15T02:42:46;8.15;;;2.63;;
70780;SDS011;59514;48.810;2.134;2022-11-15T02:45:41;7.13;;;2.15;;
70780;SDS011;59514;48.810;2.134;2022-11-15T02:48:13;6.47;;;2.22;;
70780;SDS011;59514;48.810;2.134;2022-11-15T02:50:40;4.45;;;2.13;;
70780;SDS011;59514;48.810;2.134;2022-11-15T02:53:07;4.70;;;1.60;;
70780;SDS011;59514;48.810;2.134;2022-11-15T02:55:34;7.50;;;2.45;;
70780;SDS011;59514;48.810;2.134;2022-11-15T03:03:39;6.47;;;2.38;;
70780;SDS011;59514;48.810;2.134;2022-11-15T03:06:31;6.03;;;1.98;;
70780;SDS011;59514;48.810;2.134;2022-11-15T03:09:17;5.72;;;1.50;;
70780;SDS011;59514;48.810;2.134;2022-11-15T03:11:48;9.18;;;2.25;;
70780;SDS011;59514;48.810;2.134;2022-11-15T03:14:23;6.50;;;2.00;;
70780;SDS011;59514;48.810;2.134;2022-11-15T03:16:58;5.00;;;1.58;;
70780;SDS011;59514;48.810;2.134;2022-11-15T03:22:11;8.75;;;1.80;;
70780;SDS011;59514;48.810;2.134;2022-11-15T03:24:41;5.88;;;1.60;;
70780;SDS011;59514;48.810;2.134;2022-11-15T03:27:10;8.82;;;2.40;;
70780;SDS011;59514;48.810;2.134;2022-11-15T03:29:41;4.75;;;1.90;;
70780;SDS011;59514;48.810;2.134;2022-11-15T03:32:16;7.15;;;2.08;;
70780;SDS011;59514;48.810;2.134;2022-11-15T03:37:33;7.05;;;1.65;;
70780;SDS011;59514;48.810;2.134;2022-11-15T03:40:05;5.63;;;1.95;;
70780;SDS011;59514;48.810;2.134;2022-11-15T03:42:54;4.72;;;1.60;;
70780;SDS011;59514;48.810;2.134;2022-11-15T03:45:23;4.93;;;1.83;;
70780;SDS011;59514;48.810;2.134;2022-11-15T03:47:58;6.82;;;1.80;;
70780;SDS011;59514;48.810;2.134;2022-11-15T03:50:27;7.75;;;2.05;;
70780;SDS011;59514;48.810;2.134;2022-11-15T03:52:54;5.47;;;1.83;;
70780;SDS011;59514;48.810;2.134;2022-11-15T03:55:21;8.60;;;2.42;;
70780;SDS011;59514;48.810;2.134;2022-11-15T03:57:49;5.40;;;1.90;;
70780;SDS011;59514;48.810;2.134;2022-11-15T04:00:18;4.00;;;1.75;;
70780;SDS011;59514;48.810;2.134;2022-11-15T04:02:43;9.30;;;2.03;;
70780;SDS011;59514;48.810;2.134;2022-11-15T04:05:08;5.28;;;1.90;;
70780;SDS011;59514;48.810;2.134;2022-11-15T04:07:34;4.85;;;2.08;;
70780;SDS011;59514;48.810;2.134;2022-11-15T04:09:59;4.22;;;1.80;;
70780;SDS011;59514;48.810;2.134;2022-11-15T04:12:27;5.68;;;1.90;;
70780;SDS011;59514;48.810;2.134;2022-11-15T04:15:01;5.65;;;2.50;;
70780;SDS011;59514;48.810;2.134;2022-11-15T04:17:32;4.47;;;1.65;;
70780;SDS011;59514;48.810;2.134;2022-11-15T04:19:58;4.82;;;1.50;;
70780;SDS011;59514;48.810;2.134;2022-11-15T04:22:41;4.95;;;2.10;;
70780;SDS011;59514;48.810;2.134;2022-11-15T04:25:25;5.50;;;1.65;;
70780;SDS011;59514;48.810;2.134;2022-11-15T04:27:51;7.82;;;1.58;;
70780;SDS011;59514;48.810;2.134;2022-11-15T04:30:16;5.05;;;2.22;;
70780;SDS011;59514;48.810;2.134;2022-11-15T04:32:41;3.83;;;2.10;;
70780;SDS011;59514;48.810;2.134;2022-11-15T04:35:07;6.97;;;1.92;;
70780;SDS011;59514;48.810;2.134;2022-11-15T04:37:33;6.10;;;2.10;;
70780;SDS011;59514;48.810;2.134;2022-11-15T04:39:58;5.45;;;1.73;;
70780;SDS011;59514;48.810;2.134;2022-11-15T04:42:24;5.72;;;2.00;;
70780;SDS011;59514;48.810;2.134;2022-11-15T04:44:49;8.80;;;2.40;;
70780;SDS011;59514;48.810;2.134;2022-11-15T04:47:14;4.80;;;1.85;;
70780;SDS011;59514;48.810;2.134;2022-11-15T04:49:39;4.40;;;1.90;;
70780;SDS011;59514;48.810;2.134;2022-11-15T04:52:05;6.13;;;1.90;;
70780;SDS011;59514;48.810;2.134;2022-11-15T04:54:30;4.65;;;1.55;;
70780;SDS011;59514;48.810;2.134;2022-11-15T04:56:55;5.78;;;2.10;;
70780;SDS011;59514;48.810;2.134;2022-11-15T04:59:21;6.45;;;1.95;;
70780;SDS011;59514;48.810;2.134;2022-11-15T05:01:46;4.97;;;1.67;;
70780;SDS011;59514;48.810;2.134;2022-11-15T05:04:11;7.20;;;2.20;;
70780;SDS011;59514;48.810;2.134;2022-11-15T05:06:49;3.88;;;1.45;;
70780;SDS011;59514;48.810;2.134;2022-11-15T05:09:16;6.78;;;1.85;;
70780;SDS011;59514;48.810;2.134;2022-11-15T05:11:43;5.07;;;1.92;;
70780;SDS011;59514;48.810;2.134;2022-11-15T05:14:08;3.40;;;1.75;;
70780;SDS011;59514;48.810;2.134;2022-11-15T05:16:34;6.55;;;2.03;;
70780;SDS011;59514;48.810;2.134;2022-11-15T05:18:59;6.32;;;2.08;;
70780;SDS011;59514;48.810;2.134;2022-11-15T05:21:24;5.75;;;1.95;;
70780;SDS011;59514;48.810;2.134;2022-11-15T05:23:49;7.82;;;2.47;;
70780;SDS011;59514;48.810;2.134;2022-11-15T05:26:15;9.60;;;2.00;;
70780;SDS011;59514;48.810;2.134;2022-11-15T05:28:42;5.22;;;2.22;;
70780;SDS011;59514;48.810;2.134;2022-11-15T05:31:09;3.45;;;1.90;;
70780;SDS011;59514;48.810;2.134;2022-11-15T05:33:39;4.53;;;2.50;;
70780;SDS011;59514;48.810;2.134;2022-11-15T05:39:01;8.85;;;2.33;;
70780;SDS011;59514;48.810;2.134;2022-11-15T05:41:42;5.82;;;2.30;;
70780;SDS011;59514;48.810;2.134;2022-11-15T05:44:12;5.63;;;1.80;;
70780;SDS011;59514;48.810;2.134;2022-11-15T05:46:40;6.50;;;2.03;;
70780;SDS011;59514;48.810;2.134;2022-11-15T05:49:07;4.82;;;2.15;;
70780;SDS011;59514;48.810;2.134;2022-11-15T05:51:37;6.72;;;2.63;;
70780;SDS011;59514;48.810;2.134;2022-11-15T05:54:03;9.23;;;2.30;;
70780;SDS011;59514;48.810;2.134;2022-11-15T05:56:29;4.07;;;2.33;;
70780;SDS011;59514;48.810;2.134;2022-11-15T05:58:55;4.47;;;2.40;;
70780;SDS011;59514;48.810;2.134;2022-11-15T06:01:22;5.05;;;2.65;;
70780;SDS011;59514;48.810;2.134;2022-11-15T06:03:48;4.53;;;2.47;;
70780;SDS011;59514;48.810;2.134;2022-11-15T06:06:13;9.82;;;3.17;;
70780;SDS011;59514;48.810;2.134;2022-11-15T06:08:39;6.32;;;2.70;;
70780;SDS011;59514;48.810;2.134;2022-11-15T06:11:05;6.97;;;2.75;;
70780;SDS011;59514;48.810;2.134;2022-11-15T06:13:31;7.55;;;2.90;;
70780;SDS011;59514;48.810;2.134;2022-11-15T06:15:57;5.30;;;2.80;;
70780;SDS011;59514;48.810;2.134;2022-11-15T06:18:23;5.25;;;3.13;;
70780;SDS011;59514;48.810;2.134;2022-11-15T06:20:49;6.85;;;2.80;;
70780;SDS011;59514;48.810;2.134;2022-11-15T06:23:14;6.47;;;3.05;;
70780;SDS011;59514;48.810;2.134;2022-11-15T06:25:39;6.97;;;3.03;;
70780;SDS011;59514;48.810;2.134;2022-11-15T06:28:05;6.85;;;3.17;;
70780;SDS011;59514;48.810;2.134;2022-11-15T06:30:30;7.60;;;3.83;;
70780;SDS011;59514;48.810;2.134;2022-11-15T06:33:02;5.07;;;2.72;;
70780;SDS011;59514;48.810;2.134;2022-11-15T06:35:29;5.20;;;2.60;;
70780;SDS011;59514;48.810;2.134;2022-11-15T06:37:55;6.47;;;3.33;;
70780;SDS011;59514;48.810;2.134;2022-11-15T06:40:21;5.50;;;3.20;;
70780;SDS011;59514;48.810;2.134;2022-11-15T06:42:46;5.97;;;3.67;;
70780;SDS011;59514;48.810;2.134;2022-11-15T06:45:11;7.22;;;3.42;;
70780;SDS011;59514;48.810;2.134;2022-11-15T06:47:43;7.68;;;3.00;;
70780;SDS011;59514;48.810;2.134;2022-11-15T06:50:12;8.50;;;3.70;;
70780;SDS011;59514;48.810;2.134;2022-11-15T06:52:38;7.22;;;3.42;;
70780;SDS011;59514;48.810;2.134;2022-11-15T06:55:03;9.05;;;3.88;;
70780;SDS011;59514;48.810;2.134;2022-11-15T06:57:28;5.50;;;3.20;;
70780;SDS011;59514;48.810;2.134;2022-11-15T06:59:54;6.22;;;3.00;;
70780;SDS011;59514;48.810;2.134;2022-11-15T07:02:19;6.88;;;2.95;;
70780;SDS011;59514;48.810;2.134;2022-11-15T07:04:45;7.40;;;3.38;;
70780;SDS011;59514;48.810;2.134;2022-11-15T07:07:10;7.78;;;3.45;;
70780;SDS011;59514;48.810;2.134;2022-11-15T07:09:35;5.82;;;2.80;;
70780;SDS011;59514;48.810;2.134;2022-11-15T07:12:01;5.82;;;2.58;;
70780;SDS011;59514;48.810;2.134;2022-11-15T07:14:26;6.40;;;3.00;;
70780;SDS011;59514;48.810;2.134;2022-11-15T07:16:51;5.95;;;2.50;;
70780;SDS011;59514;48.810;2.134;2022-11-15T07:19:17;6.63;;;2.90;;
70780;SDS011;59514;48.810;2.134;2022-11-15T07:21:42;4.28;;;2.83;;
70780;SDS011;59514;48.810;2.134;2022-11-15T07:24:07;7.25;;;3.35;;
70780;SDS011;59514;48.810;2.134;2022-11-15T07:26:33;7.10;;;2.70;;
70780;SDS011;59514;48.810;2.134;2022-11-15T07:28:58;7.15;;;3.33;;
70780;SDS011;59514;48.810;2.134;2022-11-15T07:31:23;5.35;;;2.95;;
70780;SDS011;59514;48.810;2.134;2022-11-15T07:33:48;6.85;;;2.92;;
70780;SDS011;59514;48.810;2.134;2022-11-15T07:36:14;4.72;;;2.80;;
70780;SDS011;59514;48.810;2.134;2022-11-15T07:38:39;7.70;;;2.83;;
70780;SDS011;59514;48.810;2.134;2022-11-15T07:41:05;7.43;;;3.30;;
70780;SDS011;59514;48.810;2.134;2022-11-15T07:43:31;4.53;;;3.25;;
70780;SDS011;59514;48.810;2.134;2022-11-15T07:45:58;7.07;;;2.70;;
70780;SDS011;59514;48.810;2.134;2022-11-15T07:48:29;8.88;;;3.35;;
70780;SDS011;59514;48.810;2.134;2022-11-15T07:50:54;7.40;;;3.10;;
70780;SDS011;59514;48.810;2.134;2022-11-15T07:53:20;7.88;;;2.58;;
70780;SDS011;59514;48.810;2.134;2022-11-15T07:55:45;6.32;;;3.25;;
70780;SDS011;59514;48.810;2.134;2022-11-15T07:58:11;5.22;;;3.13;;
70780;SDS011;59514;48.810;2.134;2022-11-15T08:00:37;5.45;;;2.70;;
70780;SDS011;59514;48.810;2.134;2022-11-15T08:03:06;7.07;;;3.13;;
70780;SDS011;59514;48.810;2.134;2022-11-15T08:05:37;5.47;;;2.60;;
70780;SDS011;59514;48.810;2.134;2022-11-15T08:08:03;4.93;;;2.80;;
70780;SDS011;59514;48.810;2.134;2022-11-15T08:10:29;10.32;;;3.33;;
70780;SDS011;59514;48.810;2.134;2022-11-15T08:15:23;7.78;;;3.30;;
70780;SDS011;59514;48.810;2.134;2022-11-15T08:17:53;4.50;;;2.60;;
70780;SDS011;59514;48.810;2.134;2022-11-15T08:20:19;4.88;;;2.22;;
70780;SDS011;59514;48.810;2.134;2022-11-15T08:22:44;5.65;;;2.30;;
70780;SDS011;59514;48.810;2.134;2022-11-15T08:25:09;4.20;;;2.40;;
70780;SDS011;59514;48.810;2.134;2022-11-15T08:27:35;4.30;;;2.45;;
70780;SDS011;59514;48.810;2.134;2022-11-15T08:30:00;6.10;;;3.10;;
70780;SDS011;59514;48.810;2.134;2022-11-15T08:32:26;5.38;;;2.10;;
70780;SDS011;59514;48.810;2.134;2022-11-15T08:34:51;8.13;;;3.45;;
70780;SDS011;59514;48.810;2.134;2022-11-15T08:37:17;6.82;;;3.33;;
70780;SDS011;59514;48.810;2.134;2022-11-15T08:39:42;5.13;;;2.40;;
70780;SDS011;59514;48.810;2.134;2022-11-15T08:42:07;3.58;;;2.10;;
70780;SDS011;59514;48.810;2.134;2022-11-15T08:44:32;4.45;;;2.17;;
70780;SDS011;59514;48.810;2.134;2022-11-15T08:46:58;5.70;;;2.40;;
70780;SDS011;59514;48.810;2.134;2022-11-15T08:49:23;4.20;;;2.22;;
70780;SDS011;59514;48.810;2.134;2022-11-15T08:51:48;4.32;;;2.13;;
70780;SDS011;59514;48.810;2.134;2022-11-15T08:54:14;5.90;;;2.13;;
70780;SDS011;59514;48.810;2.134;2022-11-15T08:56:39;4.78;;;1.83;;
70780;SDS011;59514;48.810;2.134;2022-11-15T08:59:04;4.47;;;2.63;;
70780;SDS011;59514;48.810;2.134;2022-11-15T09:01:30;4.97;;;2.00;;
70780;SDS011;59514;48.810;2.134;2022-11-15T09:03:55;4.43;;;2.00;;
70780;SDS011;59514;48.810;2.134;2022-11-15T09:06:21;2.30;;;1.80;;
70780;SDS011;59514;48.810;2.134;2022-11-15T09:08:46;7.93;;;1.70;;
70780;SDS011;59514;48.810;2.134;2022-11-15T09:11:11;5.40;;;1.75;;
70780;SDS011;59514;48.810;2.134;2022-11-15T09:13:37;4.65;;;1.70;;
70780;SDS011;59514;48.810;2.134;2022-11-15T09:16:03;6.03;;;1.90;;
70780;SDS011;59514;48.810;2.134;2022-11-15T09:18:29;3.60;;;1.80;;
70780;SDS011;59514;48.810;2.134;2022-11-15T09:20:55;2.70;;;1.63;;
70780;SDS011;59514;48.810;2.134;2022-11-15T09:23:24;3.75;;;1.80;;
70780;SDS011;59514;48.810;2.134;2022-11-15T09:25:50;3.72;;;1.33;;
70780;SDS011;59514;48.810;2.134;2022-11-15T09:28:15;2.78;;;1.10;;
70780;SDS011;59514;48.810;2.134;2022-11-15T09:30:41;5.05;;;1.42;;
70780;SDS011;59514;48.810;2.134;2022-11-15T09:33:09;2.95;;;1.38;;
70780;SDS011;59514;48.810;2.134;2022-11-15T09:35:36;4.55;;;1.58;;
70780;SDS011;59514;48.810;2.134;2022-11-15T09:38:02;5.00;;;1.63;;
70780;SDS011;59514;48.810;2.134;2022-11-15T09:40:29;2.42;;;1.30;;
70780;SDS011;59514;48.810;2.134;2022-11-15T09:43:02;3.13;;;1.27;;
70780;SDS011;59514;48.810;2.134;2022-11-15T09:48:14;4.27;;;1.60;;
70780;SDS011;59514;48.810;2.134;2022-11-15T09:50:50;4.07;;;1.60;;
70780;SDS011;59514;48.810;2.134;2022-11-15T09:53:29;1.83;;;1.38;;
70780;SDS011;59514;48.810;2.134;2022-11-15T09:56:04;4.60;;;1.40;;
70780;SDS011;59514;48.810;2.134;2022-11-15T10:01:14;2.65;;;1.50;;
70780;SDS011;59514;48.810;2.134;2022-11-15T10:03:44;2.70;;;1.40;;
70780;SDS011;59514;48.810;2.134;2022-11-15T10:06:18;3.78;;;1.33;;
70780;SDS011;59514;48.810;2.134;2022-11-15T10:08:50;4.65;;;1.45;;
70780;SDS011;59514;48.810;2.134;2022-11-15T10:11:25;5.22;;;1.73;;
70780;SDS011;59514;48.810;2.134;2022-11-15T10:13:55;3.70;;;1.40;;
70780;SDS011;59514;48.810;2.134;2022-11-15T10:24:39;1.75;;;1.30;;
70780;SDS011;59514;48.810;2.134;2022-11-15T10:27:10;4.33;;;1.63;;
70780;SDS011;59514;48.810;2.134;2022-11-15T10:29:44;1.63;;;1.50;;
70780;SDS011;59514;48.810;2.134;2022-11-15T10:32:14;2.47;;;1.60;;
70780;SDS011;59514;48.810;2.134;2022-11-15T10:34:41;3.65;;;1.50;;
70780;SDS011;59514;48.810;2.134;2022-11-15T10:37:07;2.58;;;1.42;;
70780;SDS011;59514;48.810;2.134;2022-11-15T10:39:32;3.58;;;1.60;;
70780;SDS011;59514;48.810;2.134;2022-11-15T10:41:58;3.67;;;1.48;;
70780;SDS011;59514;48.810;2.134;2022-11-15T10:44:41;3.80;;;1.58;;
70780;SDS011;59514;48.810;2.134;2022-11-15T10:47:21;3.95;;;1.73;;
70780;SDS011;59514;48.810;2.134;2022-11-15T10:49:55;3.58;;;2.38;;
70780;SDS011;59514;48.810;2.134;2022-11-15T10:52:24;5.23;;;1.80;;
70780;SDS011;59514;48.810;2.134;2022-11-15T10:57:22;3.97;;;1.63;;
70780;SDS011;59514;48.810;2.134;2022-11-15T10:59:52;3.95;;;1.83;;
70780;SDS011;59514;48.810;2.134;2022-11-15T11:04:57;3.30;;;1.85;;
70780;SDS011;59514;48.810;2.134;2022-11-15T11:07:28;4.47;;;2.17;;
70780;SDS011;59514;48.810;2.134;2022-11-15T11:09:59;2.15;;;1.50;;
70780;SDS011;59514;48.810;2.134;2022-11-15T11:12:30;2.65;;;1.52;;
70780;SDS011;59514;48.810;2.134;2022-11-15T11:14:58;7.30;;;2.40;;
70780;SDS011;59514;48.810;2.134;2022-11-15T11:22:47;4.97;;;2.30;;
70780;SDS011;59514;48.810;2.134;2022-11-15T11:36:40;4.50;;;2.67;;
70780;SDS011;59514;48.810;2.134;2022-11-15T11:45:18;4.10;;;2.47;;
70780;SDS011;59514;48.810;2.134;2022-11-15T11:48:09;4.20;;;2.40;;
70780;SDS011;59514;48.810;2.134;2022-11-15T11:50:34;5.05;;;2.53;;
70780;SDS011;59514;48.810;2.134;2022-11-15T11:53:04;4.13;;;2.40;;
70780;SDS011;59514;48.810;2.134;2022-11-15T12:00:59;3.10;;;2.25;;
70780;SDS011;59514;48.810;2.134;2022-11-15T12:03:30;3.45;;;2.20;;
70780;SDS011;59514;48.810;2.134;2022-11-15T12:06:00;5.20;;;2.40;;
70780;SDS011;59514;48.810;2.134;2022-11-15T12:11:20;3.95;;;2.45;;
70780;SDS011;59514;48.810;2.134;2022-11-15T12:13:55;5.68;;;2.63;;
70780;SDS011;59514;48.810;2.134;2022-11-15T12:16:26;4.68;;;2.60;;
70780;SDS011;59514;48.810;2.134;2022-11-15T12:18:53;5.20;;;2.72;;
70780;SDS011;59514;48.810;2.134;2022-11-15T12:24:06;7.18;;;2.65;;
70780;SDS011;59514;48.810;2.134;2022-11-15T12:26:43;3.45;;;2.70;;
70780;SDS011;59514;48.810;2.134;2022-11-15T12:29:35;3.65;;;2.67;;
70780;SDS011;59514;48.810;2.134;2022-11-15T12:32:04;5.78;;;2.65;;
70780;SDS011;59514;48.810;2.134;2022-11-15T12:34:42;5.30;;;2.88;;
70780;SDS011;59514;48.810;2.134;2022-11-15T12:42:41;3.55;;;3.17;;
70780;SDS011;59514;48.810;2.134;2022-11-15T12:45:29;5.78;;;2.83;;
70780;SDS011;59514;48.810;2.134;2022-11-15T12:50:53;3.50;;;2.63;;
70780;SDS011;59514;48.810;2.134;2022-11-15T12:58:27;3.47;;;2.25;;
70780;SDS011;59514;48.810;2.134;2022-11-15T13:01:06;3.38;;;2.72;;
70780;SDS011;59514;48.810;2.134;2022-11-15T13:03:32;3.97;;;2.55;;
70780;SDS011;59514;48.810;2.134;2022-11-15T13:05:59;4.28;;;2.58;;
70780;SDS011;59514;48.810;2.134;2022-11-15T13:08:40;2.75;;;2.47;;
70780;SDS011;59514;48.810;2.134;2022-11-15T13:11:51;3.60;;;2.33;;
70780;SDS011;59514;48.810;2.134;2022-11-15T13:22:18;4.63;;;4.20;;
70780;SDS011;59514;48.810;2.134;2022-11-15T13:25:02;5.55;;;3.60;;
70780;SDS011;59514;48.810;2.134;2022-11-15T13:27:28;3.15;;;2.40;;
70780;SDS011;59514;48.810;2.134;2022-11-15T13:29:54;4.28;;;2.85;;
70780;SDS011;59514;48.810;2.134;2022-11-15T13:32:20;5.57;;;3.03;;
70780;SDS011;59514;48.810;2.134;2022-11-15T13:34:46;4.28;;;2.78;;
70780;SDS011;59514;48.810;2.134;2022-11-15T13:39:45;3.75;;;2.65;;
70780;SDS011;59514;48.810;2.134;2022-11-15T13:42:19;4.05;;;2.72;;
70780;SDS011;59514;48.810;2.134;2022-11-15T13:45:02;3.00;;;2.38;;
70780;SDS011;59514;48.810;2.134;2022-11-15T13:47:29;5.07;;;2.47;;
70780;SDS011;59514;48.810;2.134;2022-11-15T13:49:56;3.85;;;2.35;;
70780;SDS011;59514;48.810;2.134;2022-11-15T13:52:22;4.88;;;2.40;;
70780;SDS011;59514;48.810;2.134;2022-11-15T13:57:20;2.90;;;2.60;;
70780;SDS011;59514;48.810;2.134;2022-11-15T13:59:52;3.72;;;2.88;;
70780;SDS011;59514;48.810;2.134;2022-11-15T14:02:31;3.07;;;2.43;;
70780;SDS011;59514;48.810;2.134;2022-11-15T14:07:52;3.70;;;2.35;;
70780;SDS011;59514;48.810;2.134;2022-11-15T14:10:29;3.58;;;2.60;;
70780;SDS011;59514;48.810;2.134;2022-11-15T14:12:59;6.47;;;4.78;;
70780;SDS011;59514;48.810;2.134;2022-11-15T14:15:27;3.25;;;2.70;;
70780;SDS011;59514;48.810;2.134;2022-11-15T14:17:53;3.83;;;2.78;;
70780;SDS011;59514;48.810;2.134;2022-11-15T14:20:29;3.03;;;2.53;;
70780;SDS011;59514;48.810;2.134;2022-11-15T14:23:38;3.50;;;2.80;;
70780;SDS011;59514;48.810;2.134;2022-11-15T14:25:58;4.63;;;3.25;;
70780;SDS011;59514;48.810;2.134;2022-11-15T14:30:50;2.67;;;2.47;;
70780;SDS011;59514;48.810;2.134;2022-11-15T14:33:30;5.80;;;2.83;;
70780;SDS011;59514;48.810;2.134;2022-11-15T14:35:59;3.15;;;2.42;;
70780;SDS011;59514;48.810;2.134;2022-11-15T14:38:28;3.30;;;2.58;;
70780;SDS011;59514;48.810;2.134;2022-11-15T14:40:54;5.38;;;3.25;;
70780;SDS011;59514;48.810;2.134;2022-11-15T14:43:20;4.40;;;3.33;;
70780;SDS011;59514;48.810;2.134;2022-11-15T14:45:46;3.95;;;3.28;;
70780;SDS011;59514;48.810;2.134;2022-11-15T14:48:11;3.83;;;3.20;;
70780;SDS011;59514;48.810;2.134;2022-11-15T14:50:37;3.47;;;2.80;;
70780;SDS011;59514;48.810;2.134;2022-11-15T14:53:03;4.85;;;3.92;;
70780;SDS011;59514;48.810;2.134;2022-11-15T14:55:30;4.88;;;3.70;;
70780;SDS011;59514;48.810;2.134;2022-11-15T14:58:00;3.83;;;3.03;;
70780;SDS011;59514;48.810;2.134;2022-11-15T15:00:27;3.67;;;3.33;;
70780;SDS011;59514;48.810;2.134;2022-11-15T15:02:54;4.90;;;4.00;;
70780;SDS011;59514;48.810;2.134;2022-11-15T15:05:23;6.78;;;3.95;;
70780;SDS011;59514;48.810;2.134;2022-11-15T15:07:51;4.07;;;3.60;;
70780;SDS011;59514;48.810;2.134;2022-11-15T15:10:18;5.38;;;4.25;;
70780;SDS011;59514;48.810;2.134;2022-11-15T15:12:44;4.43;;;3.75;;
70780;SDS011;59514;48.810;2.134;2022-11-15T15:15:43;6.47;;;3.85;;
70780;SDS011;59514;48.810;2.134;2022-11-15T15:18:03;4.57;;;3.72;;
70780;SDS011;59514;48.810;2.134;2022-11-15T15:20:30;7.00;;;4.25;;
70780;SDS011;59514;48.810;2.134;2022-11-15T15:22:56;6.97;;;4.25;;
70780;SDS011;59514;48.810;2.134;2022-11-15T15:27:55;5.75;;;3.88;;
70780;SDS011;59514;48.810;2.134;2022-11-15T15:30:21;5.05;;;3.90;;
70780;SDS011;59514;48.810;2.134;2022-11-15T15:32:47;5.78;;;4.40;;
70780;SDS011;59514;48.810;2.134;2022-11-15T15:35:13;5.20;;;4.28;;
70780;SDS011;59514;48.810;2.134;2022-11-15T15:37:43;4.38;;;3.88;;
70780;SDS011;59514;48.810;2.134;2022-11-15T15:40:16;6.85;;;3.95;;
70780;SDS011;59514;48.810;2.134;2022-11-15T15:42:44;4.22;;;3.83;;
70780;SDS011;59514;48.810;2.134;2022-11-15T15:45:10;5.07;;;3.95;;
70780;SDS011;59514;48.810;2.134;2022-11-15T15:47:36;5.55;;;4.00;;
70780;SDS011;59514;48.810;2.134;2022-11-15T15:50:03;5.05;;;4.55;;
70780;SDS011;59514;48.810;2.134;2022-11-15T15:52:29;6.07;;;4.70;;
70780;SDS011;59514;48.810;2.134;2022-11-15T15:54:55;8.15;;;4.93;;
70780;SDS011;59514;48.810;2.134;2022-11-15T15:57:20;5.80;;;4.95;;
70780;SDS011;59514;48.810;2.134;2022-11-15T15:59:45;4.75;;;4.30;;
70780;SDS011;59514;48.810;2.134;2022-11-15T16:02:14;5.28;;;4.38;;
70780;SDS011;59514;48.810;2.134;2022-11-15T16:04:39;5.53;;;4.70;;
70780;SDS011;59514;48.810;2.134;2022-11-15T16:07:05;6.53;;;5.43;;
70780;SDS011;59514;48.810;2.134;2022-11-15T16:09:38;7.53;;;6.22;;
70780;SDS011;59514;48.810;2.134;2022-11-15T16:12:21;9.48;;;5.00;;
70780;SDS011;59514;48.810;2.134;2022-11-15T16:14:47;5.60;;;4.70;;
70780;SDS011;59514;48.810;2.134;2022-11-15T16:17:17;8.27;;;4.80;;
70780;SDS011;59514;48.810;2.134;2022-11-15T16:19:46;4.88;;;4.03;;
70780;SDS011;59514;48.810;2.134;2022-11-15T16:22:12;5.00;;;4.60;;
70780;SDS011;59514;48.810;2.134;2022-11-15T16:24:37;7.05;;;5.30;;
70780;SDS011;59514;48.810;2.134;2022-11-15T16:27:03;6.85;;;4.68;;
70780;SDS011;59514;48.810;2.134;2022-11-15T16:29:28;6.45;;;4.72;;
70780;SDS011;59514;48.810;2.134;2022-11-15T16:31:54;7.30;;;4.13;;
70780;SDS011;59514;48.810;2.134;2022-11-15T16:34:20;4.60;;;4.20;;
70780;SDS011;59514;48.810;2.134;2022-11-15T16:36:47;7.32;;;4.68;;
70780;SDS011;59514;48.810;2.134;2022-11-15T16:39:12;5.38;;;4.40;;
70780;SDS011;59514;48.810;2.134;2022-11-15T16:41:38;7.07;;;4.55;;
70780;SDS011;59514;48.810;2.134;2022-11-15T16:44:04;5.60;;;4.35;;
70780;SDS011;59514;48.810;2.134;2022-11-15T16:46:30;5.28;;;4.03;;
70780;SDS011;59514;48.810;2.134;2022-11-15T16:48:55;6.22;;;4.57;;
70780;SDS011;59514;48.810;2.134;2022-11-15T16:51:21;6.43;;;4.50;;
70780;SDS011;59514;48.810;2.134;2022-11-15T16:53:47;6.10;;;4.43;;